DAL2789 KLAX-KPHX
Flight info
| Callsign | DAL2789 |
|---|---|
| Flight time | 0h 52m |
| Altitude | 23000 |
| Route | KLAX DOTSS2 DOTSS DCT CNERY DCT BLH HYDRR1 KPHX |
| Aircraft | A21N/M-SDFGHRWY/LB1 |
Departure
| Time | 2026-04-24 02:26 |
|---|---|
| Airport | Los Angeles International Airport (KLAX) |
Arrival
| Time | 2026-04-24 03:19 |
|---|---|
| Airport | Phoenix Sky Harbor International Airport (KPHX) |
| Time | Latitude | Longitude | Altitude | Speed | Heading |
|---|---|---|---|---|---|
| 2026-04-24 02:10 | 33.94001 | -118.40603 | 126 ft | 0 kts | 294° |
| 2026-04-24 02:12 | 33.93991 | -118.40576 | 121 ft | 7 kts | 294° |
| 2026-04-24 02:12 | 33.93975 | -118.40524 | 121 ft | 0 kts | 211° |
| 2026-04-24 02:13 | 33.93973 | -118.40525 | 121 ft | 3 kts | 210° |
| 2026-04-24 02:13 | 33.93970 | -118.40527 | 121 ft | 0 kts | 210° |
| 2026-04-24 02:13 | 33.93962 | -118.40533 | 123 ft | 0 kts | 210° |
| 2026-04-24 02:13 | 33.93961 | -118.40533 | 123 ft | 0 kts | 210° |
| 2026-04-24 02:14 | 33.93959 | -118.40534 | 124 ft | 0 kts | 206° |
| 2026-04-24 02:14 | 33.93957 | -118.40534 | 124 ft | 0 kts | 199° |
| 2026-04-24 02:15 | 33.93926 | -118.40534 | 124 ft | 8 kts | 178° |
| 2026-04-24 02:15 | 33.93847 | -118.40518 | 123 ft | 13 kts | 150° |
| 2026-04-24 02:16 | 33.93835 | -118.40421 | 124 ft | 12 kts | 83° |
| 2026-04-24 02:16 | 33.93847 | -118.40309 | 126 ft | 18 kts | 84° |
| 2026-04-24 02:16 | 33.93873 | -118.40058 | 126 ft | 25 kts | 83° |
| 2026-04-24 02:16 | 33.93893 | -118.39845 | 126 ft | 24 kts | 83° |
| 2026-04-24 02:17 | 33.93911 | -118.39663 | 124 ft | 29 kts | 83° |
| 2026-04-24 02:17 | 33.93933 | -118.39462 | 126 ft | 29 kts | 83° |
| 2026-04-24 02:17 | 33.93953 | -118.39264 | 122 ft | 22 kts | 83° |
| 2026-04-24 02:17 | 33.93971 | -118.39090 | 126 ft | 21 kts | 83° |
| 2026-04-24 02:18 | 33.93990 | -118.38903 | 126 ft | 25 kts | 82° |
| 2026-04-24 02:18 | 33.94012 | -118.38700 | 121 ft | 23 kts | 83° |
| 2026-04-24 02:18 | 33.94030 | -118.38511 | 126 ft | 24 kts | 83° |
| 2026-04-24 02:18 | 33.94048 | -118.38336 | 125 ft | 19 kts | 81° |
| 2026-04-24 02:19 | 33.94062 | -118.38209 | 126 ft | 13 kts | 83° |
| 2026-04-24 02:19 | 33.94072 | -118.38109 | 126 ft | 8 kts | 83° |
| 2026-04-24 02:19 | 33.94074 | -118.38090 | 126 ft | 0 kts | 83° |
| 2026-04-24 02:21 | 33.94075 | -118.38078 | 126 ft | 4 kts | 83° |
| 2026-04-24 02:22 | 33.94070 | -118.38049 | 126 ft | 0 kts | 115° |
| 2026-04-24 02:23 | 33.94023 | -118.38006 | 122 ft | 17 kts | 166° |
| 2026-04-24 02:24 | 33.93987 | -118.38049 | 126 ft | 0 kts | 259° |
| 2026-04-24 02:25 | 33.93980 | -118.38091 | 123 ft | 27 kts | 259° |
| 2026-04-24 02:25 | 33.93947 | -118.38379 | 126 ft | 82 kts | 263° |
| 2026-04-24 02:25 | 33.93787 | -118.39924 | 127 ft | 191 kts | 263° |
| 2026-04-24 02:26 | 33.93629 | -118.41786 | 468 ft | 248 kts | 263° |
| 2026-04-24 02:26 | 33.93443 | -118.43992 | 1575 ft | 281 kts | 262° |
| 2026-04-24 02:26 | 33.92998 | -118.46399 | 2890 ft | 308 kts | 253° |
| 2026-04-24 02:26 | 33.92087 | -118.48864 | 3960 ft | 346 kts | 240° |
| 2026-04-24 02:27 | 33.90362 | -118.51272 | 3878 ft | 416 kts | 218° |
| 2026-04-24 02:27 | 33.87658 | -118.53058 | 3962 ft | 475 kts | 202° |
| 2026-04-24 02:27 | 33.85463 | -118.53804 | 3911 ft | 515 kts | 191° |
| 2026-04-24 02:27 | 33.81890 | -118.54534 | 5011 ft | 524 kts | 194° |
| 2026-04-24 02:28 | 33.77651 | -118.57321 | 6905 ft | 534 kts | 219° |
| 2026-04-24 02:28 | 33.74898 | -118.60473 | 7518 ft | 557 kts | 228° |
| 2026-04-24 02:28 | 33.72783 | -118.64208 | 7057 ft | 494 kts | 244° |
| 2026-04-24 02:28 | 33.71829 | -118.67682 | 6660 ft | 391 kts | 255° |
| 2026-04-24 02:29 | 33.71159 | -118.69527 | 6590 ft | 341 kts | 232° |
| 2026-04-24 02:29 | 33.69489 | -118.70977 | 6933 ft | 265 kts | 187° |
| 2026-04-24 02:29 | 33.67860 | -118.70482 | 6493 ft | 266 kts | 122° |
| 2026-04-24 02:29 | 33.67432 | -118.68255 | 5969 ft | 296 kts | 82° |
| 2026-04-24 02:30 | 33.67721 | -118.65779 | 6900 ft | 311 kts | 80° |
| 2026-04-24 02:30 | 33.68016 | -118.63096 | 7869 ft | 337 kts | 83° |
| 2026-04-24 02:30 | 33.68144 | -118.60190 | 8956 ft | 359 kts | 90° |
| 2026-04-24 02:30 | 33.68056 | -118.57132 | 9729 ft | 358 kts | 92° |
| 2026-04-24 02:31 | 33.68058 | -118.54177 | 9997 ft | 338 kts | 85° |
| 2026-04-24 02:31 | 33.68259 | -118.51507 | 10172 ft | 307 kts | 86° |
| 2026-04-24 02:31 | 33.68186 | -118.49028 | 10109 ft | 290 kts | 96° |
| 2026-04-24 02:31 | 33.67742 | -118.46710 | 9789 ft | 283 kts | 109° |
| 2026-04-24 02:32 | 33.67105 | -118.44521 | 9394 ft | 279 kts | 110° |
| 2026-04-24 02:32 | 33.66454 | -118.42338 | 8998 ft | 275 kts | 110° |
| 2026-04-24 02:32 | 33.65810 | -118.40142 | 8860 ft | 294 kts | 110° |
| 2026-04-24 02:32 | 33.65101 | -118.37671 | 9283 ft | 327 kts | 108° |
| 2026-04-24 02:33 | 33.64603 | -118.34953 | 10364 ft | 344 kts | 94° |
| 2026-04-24 02:33 | 33.64541 | -118.31969 | 10928 ft | 379 kts | 92° |
| 2026-04-24 02:33 | 33.64459 | -118.28614 | 11384 ft | 408 kts | 91° |
| 2026-04-24 02:33 | 33.64426 | -118.25296 | 13601 ft | 390 kts | 90° |
| 2026-04-24 02:34 | 33.64411 | -118.22100 | 15444 ft | 376 kts | 90° |
| 2026-04-24 02:34 | 33.64410 | -118.19016 | 17131 ft | 363 kts | 90° |
| 2026-04-24 02:34 | 33.64419 | -118.16084 | 18634 ft | 350 kts | 90° |
| 2026-04-24 02:34 | 33.64433 | -118.13158 | 19574 ft | 354 kts | 89° |
| 2026-04-24 02:35 | 33.64449 | -118.10184 | 20327 ft | 359 kts | 89° |
| 2026-04-24 02:35 | 33.64463 | -118.07175 | 21107 ft | 363 kts | 89° |
| 2026-04-24 02:35 | 33.64477 | -118.04129 | 21850 ft | 368 kts | 90° |
| 2026-04-24 02:35 | 33.64490 | -118.01020 | 22433 ft | 380 kts | 90° |
| 2026-04-24 02:36 | 33.64501 | -117.97767 | 22747 ft | 400 kts | 90° |
| 2026-04-24 02:36 | 33.64511 | -117.94327 | 22903 ft | 426 kts | 90° |
| 2026-04-24 02:36 | 33.64518 | -117.90652 | 22957 ft | 455 kts | 90° |
| 2026-04-24 02:36 | 33.64522 | -117.86730 | 22983 ft | 485 kts | 90° |
| 2026-04-24 02:37 | 33.64523 | -117.82556 | 22993 ft | 515 kts | 90° |
| 2026-04-24 02:37 | 33.64521 | -117.78200 | 23003 ft | 545 kts | 90° |
| 2026-04-24 02:37 | 33.64516 | -117.73531 | 23001 ft | 569 kts | 90° |
| 2026-04-24 02:37 | 33.64507 | -117.68776 | 22996 ft | 570 kts | 90° |
| 2026-04-24 02:38 | 33.64499 | -117.64021 | 22989 ft | 570 kts | 90° |
| 2026-04-24 02:38 | 33.64490 | -117.59263 | 22989 ft | 570 kts | 90° |
| 2026-04-24 02:38 | 33.64480 | -117.54504 | 22990 ft | 570 kts | 90° |
| 2026-04-24 02:38 | 33.64471 | -117.49815 | 22983 ft | 570 kts | 90° |
| 2026-04-24 02:39 | 33.64461 | -117.45058 | 22974 ft | 570 kts | 90° |
| 2026-04-24 02:39 | 33.64451 | -117.40302 | 22974 ft | 570 kts | 90° |
| 2026-04-24 02:39 | 33.64439 | -117.35544 | 22982 ft | 570 kts | 90° |
| 2026-04-24 02:39 | 33.64428 | -117.30782 | 22974 ft | 570 kts | 90° |
| 2026-04-24 02:40 | 33.64416 | -117.26092 | 22977 ft | 570 kts | 90° |
| 2026-04-24 02:40 | 33.64402 | -117.21330 | 22970 ft | 570 kts | 90° |
| 2026-04-24 02:40 | 33.64388 | -117.16575 | 22998 ft | 570 kts | 90° |
| 2026-04-24 02:40 | 33.64376 | -117.11816 | 23002 ft | 570 kts | 90° |
| 2026-04-24 02:41 | 33.64363 | -117.07060 | 23003 ft | 570 kts | 90° |
| 2026-04-24 02:41 | 33.64349 | -117.02308 | 23007 ft | 570 kts | 90° |
| 2026-04-24 02:41 | 33.64336 | -116.97546 | 23007 ft | 570 kts | 90° |
| 2026-04-24 02:41 | 33.64322 | -116.92791 | 22993 ft | 570 kts | 90° |
| 2026-04-24 02:42 | 33.64309 | -116.88039 | 22996 ft | 570 kts | 90° |
| 2026-04-24 02:42 | 33.64295 | -116.83339 | 22987 ft | 569 kts | 90° |
| 2026-04-24 02:42 | 33.64279 | -116.78525 | 22972 ft | 570 kts | 90° |
| 2026-04-24 02:42 | 33.64265 | -116.73836 | 22956 ft | 571 kts | 90° |
| 2026-04-24 02:43 | 33.64252 | -116.69072 | 22937 ft | 571 kts | 90° |
| 2026-04-24 02:43 | 33.64237 | -116.64311 | 22927 ft | 571 kts | 90° |
| 2026-04-24 02:43 | 33.64222 | -116.59546 | 22896 ft | 571 kts | 90° |
| 2026-04-24 02:43 | 33.64208 | -116.54793 | 22922 ft | 571 kts | 90° |
| 2026-04-24 02:44 | 33.64199 | -116.50024 | 22897 ft | 570 kts | 90° |
| 2026-04-24 02:44 | 33.64188 | -116.45260 | 22901 ft | 571 kts | 90° |
| 2026-04-24 02:44 | 33.64176 | -116.40490 | 22885 ft | 572 kts | 90° |
| 2026-04-24 02:44 | 33.64167 | -116.35784 | 22853 ft | 571 kts | 90° |
| 2026-04-24 02:45 | 33.64155 | -116.31024 | 22852 ft | 571 kts | 90° |
| 2026-04-24 02:45 | 33.64145 | -116.26274 | 22859 ft | 571 kts | 90° |
| 2026-04-24 02:45 | 33.64135 | -116.21498 | 22774 ft | 572 kts | 90° |
| 2026-04-24 02:45 | 33.64125 | -116.16721 | 22755 ft | 572 kts | 90° |
| 2026-04-24 02:46 | 33.64114 | -116.11949 | 22741 ft | 572 kts | 90° |
| 2026-04-24 02:46 | 33.64104 | -116.07176 | 22740 ft | 572 kts | 90° |
| 2026-04-24 02:46 | 33.64098 | -116.04024 | 22771 ft | 571 kts | 90° |
| 2026-04-24 02:46 | 33.64089 | -115.99778 | 22820 ft | 572 kts | 90° |
| 2026-04-24 02:47 | 33.64079 | -115.95013 | 22840 ft | 572 kts | 90° |
| 2026-04-24 02:47 | 33.64069 | -115.90248 | 22831 ft | 570 kts | 90° |
| 2026-04-24 02:47 | 33.64060 | -115.85483 | 22849 ft | 570 kts | 90° |
| 2026-04-24 02:47 | 33.64051 | -115.80790 | 22852 ft | 570 kts | 90° |
| 2026-04-24 02:48 | 33.64043 | -115.76034 | 22854 ft | 570 kts | 90° |
| 2026-04-24 02:48 | 33.64034 | -115.71273 | 22853 ft | 570 kts | 90° |
| 2026-04-24 02:48 | 33.64020 | -115.66524 | 22852 ft | 570 kts | 91° |
| 2026-04-24 02:48 | 33.63928 | -115.61765 | 22856 ft | 569 kts | 92° |
| 2026-04-24 02:49 | 33.63794 | -115.57025 | 22857 ft | 568 kts | 92° |
| 2026-04-24 02:49 | 33.63643 | -115.52287 | 22857 ft | 568 kts | 92° |
| 2026-04-24 02:49 | 33.63486 | -115.47547 | 22854 ft | 569 kts | 92° |
| 2026-04-24 02:49 | 33.63328 | -115.42808 | 22863 ft | 569 kts | 92° |
| 2026-04-24 02:50 | 33.63170 | -115.38074 | 22855 ft | 568 kts | 92° |
| 2026-04-24 02:50 | 33.63011 | -115.33336 | 22866 ft | 568 kts | 92° |
| 2026-04-24 02:50 | 33.62856 | -115.28647 | 22876 ft | 571 kts | 92° |
| 2026-04-24 02:50 | 33.62702 | -115.23888 | 22869 ft | 571 kts | 92° |
| 2026-04-24 02:51 | 33.62549 | -115.19139 | 22864 ft | 570 kts | 92° |
| 2026-04-24 02:51 | 33.62396 | -115.14385 | 22860 ft | 570 kts | 92° |
| 2026-04-24 02:51 | 33.62245 | -115.09630 | 22867 ft | 570 kts | 92° |
| 2026-04-24 02:51 | 33.62094 | -115.04880 | 22872 ft | 570 kts | 92° |
| 2026-04-24 02:52 | 33.61943 | -115.00114 | 22882 ft | 572 kts | 92° |
| 2026-04-24 02:52 | 33.61790 | -114.95346 | 22884 ft | 572 kts | 92° |
| 2026-04-24 02:52 | 33.61640 | -114.90582 | 22871 ft | 571 kts | 92° |
| 2026-04-24 02:52 | 33.61508 | -114.86240 | 22885 ft | 571 kts | 92° |
| 2026-04-24 02:53 | 33.61330 | -114.82370 | 22875 ft | 571 kts | 96° |
| 2026-04-24 02:53 | 33.60784 | -114.77657 | 22850 ft | 571 kts | 100° |
| 2026-04-24 02:53 | 33.60079 | -114.72973 | 22816 ft | 571 kts | 102° |
| 2026-04-24 02:53 | 33.59337 | -114.68365 | 22804 ft | 570 kts | 102° |
| 2026-04-24 02:54 | 33.58570 | -114.63699 | 22803 ft | 570 kts | 102° |
| 2026-04-24 02:54 | 33.57796 | -114.59030 | 22803 ft | 570 kts | 102° |
| 2026-04-24 02:54 | 33.57021 | -114.54369 | 22854 ft | 570 kts | 102° |
| 2026-04-24 02:54 | 33.56246 | -114.49709 | 22880 ft | 570 kts | 102° |
| 2026-04-24 02:55 | 33.55472 | -114.45045 | 22891 ft | 570 kts | 102° |
| 2026-04-24 02:55 | 33.54697 | -114.40380 | 22892 ft | 571 kts | 102° |
| 2026-04-24 02:55 | 33.53921 | -114.35717 | 22884 ft | 570 kts | 102° |
| 2026-04-24 02:55 | 33.53141 | -114.31062 | 22882 ft | 570 kts | 102° |
| 2026-04-24 02:56 | 33.52358 | -114.26402 | 22875 ft | 570 kts | 102° |
| 2026-04-24 02:56 | 33.51578 | -114.21747 | 22879 ft | 570 kts | 102° |
| 2026-04-24 02:56 | 33.50807 | -114.17151 | 22888 ft | 570 kts | 102° |
| 2026-04-24 02:56 | 33.50025 | -114.12488 | 22886 ft | 570 kts | 102° |
| 2026-04-24 02:57 | 33.49247 | -114.07835 | 22889 ft | 570 kts | 102° |
| 2026-04-24 02:57 | 33.48469 | -114.03185 | 22882 ft | 569 kts | 102° |
| 2026-04-24 02:57 | 33.47691 | -113.98539 | 22889 ft | 569 kts | 102° |
| 2026-04-24 02:57 | 33.46912 | -113.93889 | 22902 ft | 569 kts | 102° |
| 2026-04-24 02:58 | 33.46134 | -113.89244 | 22916 ft | 569 kts | 102° |
| 2026-04-24 02:58 | 33.45356 | -113.84599 | 22933 ft | 569 kts | 102° |
| 2026-04-24 02:58 | 33.44591 | -113.80011 | 22945 ft | 569 kts | 102° |
| 2026-04-24 02:58 | 33.43818 | -113.75363 | 22955 ft | 569 kts | 102° |
| 2026-04-24 02:59 | 33.43046 | -113.70716 | 22967 ft | 570 kts | 102° |
| 2026-04-24 02:59 | 33.42275 | -113.66070 | 22970 ft | 569 kts | 102° |
| 2026-04-24 02:59 | 33.41502 | -113.61422 | 22969 ft | 569 kts | 102° |
| 2026-04-24 02:59 | 33.40731 | -113.56773 | 22956 ft | 569 kts | 102° |
| 2026-04-24 03:00 | 33.39960 | -113.52127 | 22946 ft | 570 kts | 102° |
| 2026-04-24 03:00 | 33.39191 | -113.47471 | 22949 ft | 570 kts | 102° |
| 2026-04-24 03:00 | 33.38423 | -113.42823 | 22882 ft | 570 kts | 102° |
| 2026-04-24 03:00 | 33.37664 | -113.38229 | 22879 ft | 570 kts | 102° |
| 2026-04-24 03:01 | 33.36897 | -113.33584 | 22873 ft | 570 kts | 102° |
| 2026-04-24 03:01 | 33.36128 | -113.28924 | 22868 ft | 571 kts | 102° |
| 2026-04-24 03:01 | 33.35358 | -113.24263 | 22863 ft | 571 kts | 102° |
| 2026-04-24 03:01 | 33.34629 | -113.19846 | 22860 ft | 571 kts | 102° |
| 2026-04-24 03:02 | 33.33863 | -113.15197 | 22859 ft | 570 kts | 102° |
| 2026-04-24 03:02 | 33.33099 | -113.10547 | 22606 ft | 571 kts | 102° |
| 2026-04-24 03:02 | 33.32341 | -113.05930 | 21485 ft | 574 kts | 102° |
| 2026-04-24 03:02 | 33.31569 | -113.01233 | 20291 ft | 576 kts | 102° |
| 2026-04-24 03:03 | 33.30797 | -112.96531 | 19232 ft | 578 kts | 102° |
| 2026-04-24 03:03 | 33.30019 | -112.91814 | 18201 ft | 579 kts | 102° |
| 2026-04-24 03:03 | 33.29236 | -112.87096 | 17419 ft | 571 kts | 102° |
| 2026-04-24 03:03 | 33.28490 | -112.82593 | 17102 ft | 534 kts | 102° |
| 2026-04-24 03:04 | 33.27812 | -112.78374 | 16930 ft | 500 kts | 99° |
| 2026-04-24 03:04 | 33.27702 | -112.74357 | 16823 ft | 470 kts | 86° |
| 2026-04-24 03:04 | 33.27978 | -112.70640 | 16766 ft | 419 kts | 83° |
| 2026-04-24 03:04 | 33.28300 | -112.67274 | 16856 ft | 412 kts | 82° |
| 2026-04-24 03:05 | 33.28645 | -112.63958 | 16882 ft | 424 kts | 82° |
| 2026-04-24 03:05 | 33.29005 | -112.60609 | 16889 ft | 400 kts | 82° |
| 2026-04-24 03:05 | 33.29352 | -112.57406 | 16892 ft | 378 kts | 82° |
| 2026-04-24 03:05 | 33.29696 | -112.54258 | 16871 ft | 390 kts | 82° |
| 2026-04-24 03:06 | 33.30057 | -112.50984 | 16747 ft | 396 kts | 82° |
| 2026-04-24 03:06 | 33.30411 | -112.47772 | 16261 ft | 385 kts | 82° |
| 2026-04-24 03:06 | 33.30769 | -112.44580 | 15103 ft | 379 kts | 82° |
| 2026-04-24 03:06 | 33.31122 | -112.41532 | 13937 ft | 362 kts | 82° |
| 2026-04-24 03:07 | 33.31466 | -112.38615 | 12694 ft | 348 kts | 81° |
| 2026-04-24 03:07 | 33.31787 | -112.35799 | 11491 ft | 337 kts | 82° |
| 2026-04-24 03:07 | 33.32086 | -112.33068 | 10361 ft | 326 kts | 81° |
| 2026-04-24 03:07 | 33.32363 | -112.30417 | 9180 ft | 317 kts | 81° |
| 2026-04-24 03:08 | 33.32627 | -112.27832 | 7957 ft | 309 kts | 82° |
| 2026-04-24 03:08 | 33.33145 | -112.22871 | 5592 ft | 296 kts | 82° |
| 2026-04-24 03:08 | 33.33417 | -112.20460 | 4670 ft | 286 kts | 82° |
| 2026-04-24 03:09 | 33.33678 | -112.18201 | 4211 ft | 262 kts | 82° |
| 2026-04-24 03:09 | 33.33923 | -112.16149 | 4005 ft | 237 kts | 82° |
| 2026-04-24 03:09 | 33.34155 | -112.14300 | 3916 ft | 215 kts | 81° |
| 2026-04-24 03:09 | 33.34373 | -112.12473 | 3888 ft | 227 kts | 81° |
| 2026-04-24 03:10 | 33.34598 | -112.10558 | 3887 ft | 238 kts | 82° |
| 2026-04-24 03:10 | 33.34842 | -112.08564 | 3878 ft | 249 kts | 81° |
| 2026-04-24 03:10 | 33.35091 | -112.06451 | 3876 ft | 263 kts | 82° |
| 2026-04-24 03:10 | 33.35362 | -112.04241 | 3892 ft | 273 kts | 81° |
| 2026-04-24 03:11 | 33.35638 | -112.01975 | 3881 ft | 279 kts | 81° |
| 2026-04-24 03:11 | 33.35865 | -111.99656 | 3855 ft | 282 kts | 84° |
| 2026-04-24 03:11 | 33.36049 | -111.97344 | 3850 ft | 284 kts | 85° |
| 2026-04-24 03:11 | 33.36225 | -111.94981 | 3848 ft | 286 kts | 85° |
| 2026-04-24 03:12 | 33.36394 | -111.92606 | 3848 ft | 287 kts | 85° |
| 2026-04-24 03:12 | 33.36558 | -111.90224 | 3857 ft | 288 kts | 85° |
| 2026-04-24 03:12 | 33.36718 | -111.87833 | 3874 ft | 288 kts | 85° |
| 2026-04-24 03:12 | 33.36878 | -111.85443 | 3885 ft | 289 kts | 86° |
| 2026-04-24 03:13 | 33.37043 | -111.83042 | 3910 ft | 288 kts | 85° |
| 2026-04-24 03:13 | 33.37340 | -111.80688 | 3931 ft | 282 kts | 71° |
| 2026-04-24 03:13 | 33.38321 | -111.78846 | 3929 ft | 251 kts | 42° |
| 2026-04-24 03:13 | 33.39765 | -111.77916 | 3956 ft | 226 kts | 15° |
| 2026-04-24 03:14 | 33.41222 | -111.77441 | 3969 ft | 209 kts | 10° |
| 2026-04-24 03:14 | 33.42580 | -111.77122 | 3967 ft | 195 kts | 356° |
| 2026-04-24 03:14 | 33.43762 | -111.77618 | 3965 ft | 173 kts | 313° |
| 2026-04-24 03:14 | 33.44301 | -111.78783 | 3991 ft | 154 kts | 282° |
| 2026-04-24 03:15 | 33.44423 | -111.80026 | 3758 ft | 158 kts | 272° |
| 2026-04-24 03:15 | 33.44468 | -111.81413 | 3364 ft | 171 kts | 270° |
| 2026-04-24 03:15 | 33.44465 | -111.82844 | 3177 ft | 170 kts | 266° |
| 2026-04-24 03:15 | 33.44404 | -111.84210 | 3096 ft | 158 kts | 265° |
| 2026-04-24 03:16 | 33.44323 | -111.85562 | 3050 ft | 173 kts | 264° |
| 2026-04-24 03:16 | 33.44220 | -111.87060 | 2929 ft | 185 kts | 264° |
| 2026-04-24 03:16 | 33.44139 | -111.88568 | 2917 ft | 176 kts | 266° |
| 2026-04-24 03:16 | 33.44106 | -111.89989 | 2459 ft | 180 kts | 267° |
| 2026-04-24 03:17 | 33.44092 | -111.91418 | 2262 ft | 167 kts | 268° |
| 2026-04-24 03:17 | 33.44077 | -111.92780 | 2064 ft | 159 kts | 268° |
| 2026-04-24 03:17 | 33.44055 | -111.94066 | 1812 ft | 156 kts | 269° |
| 2026-04-24 03:17 | 33.44057 | -111.95488 | 1631 ft | 182 kts | 270° |
| 2026-04-24 03:18 | 33.44069 | -111.96912 | 1440 ft | 161 kts | 269° |
| 2026-04-24 03:18 | 33.44084 | -111.98183 | 1298 ft | 145 kts | 269° |
| 2026-04-24 03:18 | 33.44082 | -111.99364 | 1149 ft | 137 kts | 266° |
| 2026-04-24 03:18 | 33.44072 | -112.00283 | 1132 ft | 70 kts | 274° |
| 2026-04-24 03:19 | 33.44087 | -112.00663 | 1130 ft | 28 kts | 267° |
| 2026-04-24 03:19 | 33.44022 | -112.00734 | 1133 ft | 0 kts | 186° |
| 2026-04-24 03:20 | 33.44000 | -112.00728 | 1134 ft | 15 kts | 158° |
| 2026-04-24 03:20 | 33.43979 | -112.00503 | 1134 ft | 26 kts | 93° |
| 2026-04-24 03:21 | 33.43941 | -112.00398 | 1134 ft | 15 kts | 165° |
| 2026-04-24 03:21 | 33.43686 | -112.00384 | 1132 ft | 46 kts | 180° |
| 2026-04-24 03:21 | 33.43406 | -112.00386 | 1133 ft | 19 kts | 180° |
| 2026-04-24 03:21 | 33.43310 | -112.00390 | 1133 ft | 12 kts | 186° |
| 2026-04-24 03:22 | 33.43285 | -112.00473 | 1135 ft | 28 kts | 271° |
| 2026-04-24 03:22 | 33.43286 | -112.00690 | 1135 ft | 23 kts | 270° |
| 2026-04-24 03:22 | 33.43286 | -112.00870 | 1135 ft | 24 kts | 269° |
| 2026-04-24 03:22 | 33.43288 | -112.01055 | 1135 ft | 20 kts | 270° |
| 2026-04-24 03:23 | 33.43294 | -112.01193 | 1135 ft | 11 kts | 298° |
| 2026-04-24 03:23 | 33.43350 | -112.01200 | 1133 ft | 8 kts | 9° |
| 2026-04-24 03:23 | 33.43386 | -112.01196 | 1133 ft | 0 kts | 4° |